Valley, Washington
Current Conditions -  °F | °C
As of 8:15 PM on Wednesday 26 Nov 2014 (Local Time) from KDEW Reporting Station
Haze Haze  
Wind Chill: 37°   Ceiling: 1600
Heat Index: 37°   Visibility: 5mi
Dew Point: 37°   Wind: 0mph
Humidity: 100%   Direction: NA
Pressure: 30.02"   Gusts: NA
Location:  48.17°N, 117.73°W
Report Text: KDEW 270415Z AUTO 00000KT 5SM BR OVC016 03/03 A3002 RMK AO2 T00280028
Loading
Personal Weather Stations






























Interactive Weather Map New forecast layout! Learn more

10-Day Weather Forecast

Advertisements
Track Severe Weather on mobile